createdAt,value
2018-09-27T00:00:45.406Z,60.39
2018-09-27T00:01:45.308Z,61.00
2018-09-27T00:02:45.286Z,61.41
2018-09-27T00:03:45.240Z,60.70
2018-09-27T00:04:45.294Z,60.60
2018-09-27T00:05:45.302Z,60.80
2018-09-27T00:06:45.314Z,61.00
2018-09-27T00:07:45.273Z,60.91
2018-09-27T00:08:46.260Z,60.39
2018-09-27T00:09:45.249Z,60.91
2018-09-27T00:10:45.358Z,60.60
2018-09-27T00:11:45.141Z,61.11
2018-09-27T00:12:45.220Z,60.80
2018-09-27T00:13:45.143Z,60.39
2018-09-27T00:14:45.184Z,59.78
2018-09-27T00:15:45.142Z,59.28
2018-09-27T00:16:45.207Z,59.14
2018-09-27T00:17:45.134Z,59.25
2018-09-27T00:18:45.196Z,59.38
2018-09-27T00:19:45.130Z,60.37
2018-09-27T00:20:45.110Z,60.09
2018-09-27T00:21:45.100Z,60.16
2018-09-27T00:22:45.172Z,59.14
2018-09-27T00:23:45.081Z,59.28
2018-09-27T00:24:45.121Z,60.16
2018-09-27T00:25:45.066Z,58.76
2018-09-27T00:26:45.020Z,59.25
2018-09-27T00:27:45.011Z,59.38
2018-09-27T00:28:45.109Z,60.39
2018-09-27T00:29:44.964Z,59.99
2018-09-27T00:30:45.036Z,60.09
2018-09-27T00:31:44.985Z,60.70
2018-09-27T00:32:44.982Z,59.17
2018-09-27T00:33:45.100Z,60.37
2018-09-27T00:34:44.958Z,60.27
2018-09-27T00:35:44.958Z,59.78
2018-09-27T00:36:44.954Z,59.45
2018-09-27T00:37:44.893Z,60.09
2018-09-27T00:38:45.000Z,60.47
2018-09-27T00:39:44.907Z,60.77
2018-09-27T00:40:44.875Z,60.09
2018-09-27T00:41:44.881Z,61.00
2018-09-27T00:42:44.851Z,60.50
2018-09-27T00:43:44.876Z,60.60
2018-09-27T00:44:44.931Z,60.80
2018-09-27T00:45:44.829Z,60.50
2018-09-27T00:46:44.813Z,60.70
2018-09-27T00:47:44.835Z,59.38
2018-09-27T00:48:44.821Z,59.78
2018-09-27T00:49:44.787Z,61.21
2018-09-27T00:50:44.844Z,61.00
2018-09-27T00:51:44.740Z,60.91
2018-09-27T00:52:44.732Z,60.50
2018-09-27T00:53:44.736Z,60.60
2018-09-27T00:54:44.767Z,60.80
2018-09-27T00:55:44.725Z,61.00
2018-09-27T00:56:44.747Z,60.60
2018-09-27T00:57:44.692Z,59.89
2018-09-27T00:58:44.709Z,61.21
2018-09-27T00:59:44.696Z,60.30
2018-09-27T01:00:44.730Z,60.39
2018-09-27T01:01:44.772Z,60.39
2018-09-27T01:02:44.675Z,61.00
2018-09-27T01:03:44.634Z,60.80
2018-09-27T01:04:44.628Z,60.80
2018-09-27T01:05:44.608Z,60.60
2018-09-27T01:06:44.756Z,59.99
2018-09-27T01:07:44.546Z,61.21
2018-09-27T01:08:44.587Z,61.11
2018-09-27T01:09:44.543Z,60.91
2018-09-27T01:10:44.548Z,61.00
2018-09-27T01:11:44.672Z,61.00
2018-09-27T01:12:44.583Z,60.80
2018-09-27T01:13:44.542Z,60.80
2018-09-27T01:14:44.545Z,60.91
2018-09-27T01:15:44.485Z,61.82
2018-09-27T01:16:44.545Z,60.91
2018-09-27T01:17:44.476Z,60.60
2018-09-27T01:18:44.524Z,60.91
2018-09-27T01:19:44.406Z,61.04
2018-09-27T01:20:44.467Z,61.65
2018-09-27T01:21:44.550Z,61.54
2018-09-27T01:22:44.413Z,61.24
2018-09-27T01:23:44.358Z,61.44
2018-09-27T01:24:44.416Z,61.54
2018-09-27T01:25:44.359Z,61.14
2018-09-27T01:26:44.381Z,61.24
2018-09-27T01:27:44.320Z,61.34
2018-09-27T01:28:44.349Z,61.34
2018-09-27T01:29:44.364Z,61.44
2018-09-27T01:30:44.423Z,61.85
2018-09-27T01:31:44.310Z,62.36
2018-09-27T01:32:44.405Z,62.26
2018-09-27T01:33:44.297Z,62.46
2018-09-27T01:34:44.295Z,62.05
2018-09-27T01:35:44.266Z,62.16
2018-09-27T01:36:44.347Z,62.56
2018-09-27T01:37:44.235Z,62.46
2018-09-27T01:38:44.271Z,62.97
2018-09-27T01:39:44.217Z,61.95
2018-09-27T01:40:44.178Z,62.36
2018-09-27T01:41:44.240Z,63.07
2018-09-27T01:42:44.192Z,62.26
2018-09-27T01:43:44.290Z,62.66
2018-09-27T01:44:44.349Z,62.56
2018-09-27T01:45:44.183Z,62.29
2018-09-27T01:46:44.162Z,63.00
2018-09-27T01:47:44.171Z,63.68
2018-09-27T01:48:44.194Z,62.77
2018-09-27T01:49:44.345Z,62.66
2018-09-27T01:50:44.153Z,63.61
2018-09-27T01:51:44.139Z,63.31
2018-09-27T01:52:44.674Z,63.58
2018-09-27T01:53:44.112Z,63.68
2018-09-27T01:54:44.096Z,63.89
2018-09-27T01:55:44.197Z,63.82
2018-09-27T01:56:44.047Z,63.99
2018-09-27T01:57:44.045Z,64.22
2018-09-27T01:58:44.020Z,63.51
2018-09-27T01:59:44.022Z,63.89
2018-09-27T02:00:43.996Z,64.63
2018-09-27T02:01:44.067Z,64.53
2018-09-27T02:02:43.994Z,64.29
2018-09-27T02:03:43.965Z,63.79
2018-09-27T02:04:43.956Z,63.51
2018-09-27T02:05:43.928Z,64.02
2018-09-27T02:06:43.939Z,63.51
2018-09-27T02:07:44.078Z,63.71
2018-09-27T02:08:43.933Z,63.92
2018-09-27T02:09:43.897Z,63.61
2018-09-27T02:10:43.888Z,64.32
2018-09-27T02:11:43.861Z,64.29
2018-09-27T02:12:43.937Z,64.22
2018-09-27T02:13:43.866Z,63.89
2018-09-27T02:14:43.927Z,64.20
2018-09-27T02:15:43.831Z,64.63
2018-09-27T02:16:43.828Z,64.20
2018-09-27T02:17:43.843Z,63.89
2018-09-27T02:18:43.816Z,64.70
2018-09-27T02:19:43.887Z,64.73
2018-09-27T02:20:43.786Z,64.09
2018-09-27T02:21:43.821Z,64.12
2018-09-27T02:22:43.757Z,64.22
2018-09-27T02:23:43.857Z,63.68
2018-09-27T02:24:43.761Z,63.71
2018-09-27T02:25:43.751Z,64.12
2018-09-27T02:26:43.716Z,64.43
2018-09-27T02:27:43.773Z,64.22
2018-09-27T02:28:43.691Z,62.87
2018-09-27T02:29:43.773Z,63.61
2018-09-27T02:30:43.687Z,63.99
2018-09-27T02:31:43.691Z,64.02
2018-09-27T02:32:43.618Z,63.48
2018-09-27T02:33:43.622Z,64.20
2018-09-27T02:34:43.767Z,64.32
2018-09-27T02:35:43.634Z,63.92
2018-09-27T02:36:43.623Z,64.29
2018-09-27T02:37:43.570Z,62.77
2018-09-27T02:38:43.615Z,62.66
2018-09-27T02:39:43.617Z,63.51
2018-09-27T02:40:43.792Z,63.99
2018-09-27T02:41:43.520Z,63.92
2018-09-27T02:42:43.505Z,63.61
2018-09-27T02:43:43.499Z,64.32
2018-09-27T02:44:43.544Z,62.90
2018-09-27T02:45:44.232Z,63.07
2018-09-27T02:46:43.646Z,62.77
2018-09-27T02:47:43.537Z,63.41
2018-09-27T02:48:43.499Z,63.92
2018-09-27T02:49:43.487Z,63.51
2018-09-27T02:50:43.483Z,63.71
2018-09-27T02:51:43.426Z,64.22
2018-09-27T02:52:43.601Z,64.32
2018-09-27T02:53:43.455Z,63.61
2018-09-27T02:54:43.427Z,63.61
2018-09-27T02:55:43.417Z,63.71
2018-09-27T02:56:43.392Z,63.92
2018-09-27T02:57:43.532Z,64.02
2018-09-27T02:58:43.390Z,64.12
2018-09-27T02:59:43.343Z,64.32
2018-09-27T03:00:43.371Z,63.61
2018-09-27T03:01:43.342Z,62.90
2018-09-27T03:02:43.442Z,63.41
2018-09-27T03:03:43.309Z,63.92
2018-09-27T03:04:43.348Z,63.71
2018-09-27T03:05:43.293Z,64.32
2018-09-27T03:06:43.290Z,64.22
2018-09-27T03:07:43.253Z,64.22
2018-09-27T03:08:43.357Z,64.73
2018-09-27T03:09:43.264Z,64.63
2018-09-27T03:10:43.233Z,65.04
2018-09-27T03:11:43.224Z,64.73
2018-09-27T03:12:43.755Z,64.53
2018-09-27T03:13:43.252Z,64.84
2018-09-27T03:14:44.240Z,64.63
2018-09-27T03:15:44.194Z,65.04
2018-09-27T03:16:43.229Z,65.04
2018-09-27T03:17:43.201Z,65.45
2018-09-27T03:18:43.170Z,65.45
2018-09-27T03:19:43.279Z,64.73
2018-09-27T03:20:43.163Z,64.84
2018-09-27T03:21:43.139Z,64.94
2018-09-27T03:22:43.191Z,64.63
2018-09-27T03:23:43.081Z,64.63
2018-09-27T03:24:43.134Z,65.25
2018-09-27T03:25:43.164Z,65.14
2018-09-27T03:26:43.119Z,65.65
2018-09-27T03:27:43.042Z,64.73
2018-09-27T03:28:43.104Z,64.63
2018-09-27T03:29:43.063Z,65.25
2018-09-27T03:30:42.990Z,65.25
2018-09-27T03:31:43.138Z,65.34
2018-09-27T03:32:43.017Z,65.34
2018-09-27T03:33:43.011Z,65.55
2018-09-27T03:34:43.062Z,65.04
2018-09-27T03:35:43.021Z,64.73
2018-09-27T03:36:42.983Z,64.73
2018-09-27T03:37:43.054Z,65.04
2018-09-27T03:38:42.924Z,65.04
2018-09-27T03:39:43.002Z,65.34
2018-09-27T03:40:43.032Z,65.45
2018-09-27T03:41:42.942Z,64.22
2018-09-27T03:42:43.001Z,64.32
2018-09-27T03:43:44.753Z,65.04
2018-09-27T03:44:42.880Z,64.12
2018-09-27T03:45:42.865Z,64.22
2018-09-27T03:46:42.854Z,64.84
2018-09-27T03:47:42.832Z,65.04
2018-09-27T03:48:42.979Z,64.73
2018-09-27T03:49:42.788Z,64.84
2018-09-27T03:50:42.797Z,65.25
2018-09-27T03:51:42.833Z,65.75
2018-09-27T03:52:42.781Z,64.84
2018-09-27T03:53:42.812Z,65.34
2018-09-27T03:54:42.908Z,65.45
2018-09-27T03:55:42.717Z,65.55
2018-09-27T03:56:42.762Z,65.14
2018-09-27T03:57:42.766Z,64.22
2018-09-27T03:58:42.770Z,63.82
2018-09-27T03:59:42.808Z,64.32
2018-09-27T04:00:42.723Z,64.22
2018-09-27T04:01:42.725Z,64.73
2018-09-27T04:02:42.705Z,64.94
2018-09-27T04:03:42.670Z,64.53
2018-09-27T04:04:42.803Z,64.73
2018-09-27T04:05:42.679Z,64.84
2018-09-27T04:06:42.649Z,65.45
2018-09-27T04:07:42.608Z,65.34
2018-09-27T04:08:42.580Z,66.16
2018-09-27T04:09:42.599Z,66.06
2018-09-27T04:10:42.766Z,65.45
2018-09-27T04:11:42.589Z,66.06
2018-09-27T04:12:42.555Z,65.04
2018-09-27T04:13:42.541Z,65.14
2018-09-27T04:14:42.535Z,65.55
2018-09-27T04:15:42.701Z,65.25
2018-09-27T04:16:42.591Z,65.34
2018-09-27T04:17:42.516Z,65.75
2018-09-27T04:18:42.492Z,66.27
2018-09-27T04:19:42.456Z,65.25
2018-09-27T04:20:42.613Z,64.84
2018-09-27T04:21:42.504Z,64.94
2018-09-27T04:22:42.491Z,64.97
2018-09-27T04:23:42.458Z,64.56
2018-09-27T04:24:42.443Z,64.87
2018-09-27T04:25:42.430Z,64.97
2018-09-27T04:26:42.496Z,65.58
2018-09-27T04:27:42.433Z,65.55
2018-09-27T04:28:42.403Z,65.95
2018-09-27T04:29:42.375Z,65.04
2018-09-27T04:30:42.378Z,65.55
2018-09-27T04:31:42.357Z,65.07
2018-09-27T04:32:42.357Z,65.68
2018-09-27T04:33:42.423Z,64.73
2018-09-27T04:34:42.300Z,64.73
2018-09-27T04:35:42.339Z,65.14
2018-09-27T04:36:42.351Z,65.55
2018-09-27T04:37:42.393Z,65.28
2018-09-27T04:38:42.317Z,66.30
2018-09-27T04:39:42.374Z,66.30
2018-09-27T04:40:42.278Z,65.14
2018-09-27T04:41:42.274Z,65.78
2018-09-27T04:42:42.300Z,65.55
2018-09-27T04:43:42.271Z,65.89
2018-09-27T04:44:42.189Z,65.37
2018-09-27T04:45:42.281Z,65.17
2018-09-27T04:46:42.298Z,64.66
2018-09-27T04:47:42.177Z,64.46
2018-09-27T04:48:42.224Z,65.07
2018-09-27T04:49:42.129Z,64.76
2018-09-27T04:50:42.120Z,64.56
2018-09-27T04:51:42.177Z,64.66
2018-09-27T04:52:42.302Z,64.36
2018-09-27T04:53:42.127Z,64.76
2018-09-27T04:54:42.142Z,65.68
2018-09-27T04:55:42.132Z,65.25
2018-09-27T04:56:42.073Z,64.76
2018-09-27T04:57:42.096Z,65.17
2018-09-27T04:58:42.178Z,64.84
2018-09-27T04:59:42.136Z,65.34
2018-09-27T05:00:42.059Z,65.65
2018-09-27T05:01:41.998Z,65.65
2018-09-27T05:02:42.075Z,66.09
2018-09-27T05:03:42.107Z,66.19
2018-09-27T05:04:42.087Z,66.09
2018-09-27T05:05:42.054Z,66.06
2018-09-27T05:06:41.974Z,66.19
2018-09-27T05:07:42.005Z,65.45
2018-09-27T05:08:41.993Z,64.94
2018-09-27T05:09:42.113Z,65.68
2018-09-27T05:10:42.036Z,65.55
2018-09-27T05:11:41.968Z,65.68
2018-09-27T05:12:41.946Z,65.65
2018-09-27T05:13:41.911Z,65.95
2018-09-27T05:14:41.941Z,65.55
2018-09-27T05:15:42.104Z,65.55
2018-09-27T05:16:41.883Z,65.45
2018-09-27T05:17:41.882Z,65.14
2018-09-27T05:18:41.881Z,65.34
2018-09-27T05:19:41.901Z,66.06
2018-09-27T05:20:41.841Z,66.16
2018-09-27T05:21:42.008Z,66.16
2018-09-27T05:22:41.858Z,66.27
2018-09-27T05:23:41.839Z,66.77
2018-09-27T05:24:41.840Z,66.27
2018-09-27T05:25:41.810Z,66.16
2018-09-27T05:26:41.819Z,66.16
2018-09-27T05:27:41.843Z,66.16
2018-09-27T05:28:41.817Z,66.27
2018-09-27T05:29:41.722Z,66.36
2018-09-27T05:30:41.795Z,66.16
2018-09-27T05:31:41.716Z,66.16
2018-09-27T05:32:41.803Z,66.06
2018-09-27T05:33:41.811Z,66.36
2018-09-27T05:34:41.702Z,66.27
2018-09-27T05:35:41.901Z,66.16
2018-09-27T05:36:41.693Z,66.77
2018-09-27T05:37:41.697Z,66.67
2018-09-27T05:38:41.677Z,65.86
2018-09-27T05:39:41.674Z,65.95
2018-09-27T05:40:41.639Z,66.27
2018-09-27T05:41:41.649Z,66.47
2018-09-27T05:42:41.744Z,65.86
2018-09-27T05:43:41.624Z,65.75
2018-09-27T05:44:41.575Z,65.45
2018-09-27T05:45:41.627Z,66.16
2018-09-27T05:46:41.619Z,65.55
2018-09-27T05:47:41.571Z,66.27
2018-09-27T05:48:41.675Z,65.95
2018-09-27T05:49:41.545Z,66.16
2018-09-27T05:50:41.465Z,65.65
2018-09-27T05:51:41.552Z,66.27
2018-09-27T05:52:41.551Z,66.77
2018-09-27T05:53:41.473Z,66.16
2018-09-27T05:54:41.636Z,66.16
2018-09-27T05:55:41.515Z,65.55
2018-09-27T05:56:41.505Z,66.47
2018-09-27T05:57:41.409Z,65.95
2018-09-27T05:58:41.416Z,65.75
2018-09-27T05:59:41.464Z,65.55
2018-09-27T06:00:41.482Z,65.45
2018-09-27T06:01:41.516Z,66.27
2018-09-27T06:02:41.403Z,66.36
2018-09-27T06:03:41.554Z,65.55
2018-09-27T06:04:41.348Z,65.11
2018-09-27T06:05:41.486Z,65.55
2018-09-27T06:06:41.380Z,64.73
2018-09-27T06:07:41.326Z,64.50
2018-09-27T06:08:41.332Z,64.29
2018-09-27T06:09:41.342Z,64.20
2018-09-27T06:10:41.356Z,64.32
2018-09-27T06:11:41.590Z,64.63
2018-09-27T06:12:41.326Z,63.92
2018-09-27T06:13:41.290Z,64.20
2018-09-27T06:14:41.297Z,63.51
2018-09-27T06:15:41.311Z,63.58
2018-09-27T06:16:41.223Z,63.68
2018-09-27T06:17:41.357Z,63.58
2018-09-27T06:18:41.236Z,62.87
2018-09-27T06:19:41.268Z,63.28
2018-09-27T06:20:41.221Z,62.87
2018-09-27T06:21:41.279Z,62.66
2018-09-27T06:22:41.248Z,62.77
2018-09-27T06:23:41.191Z,62.66
2018-09-27T06:24:41.151Z,62.87
2018-09-27T06:25:41.173Z,62.87
2018-09-27T06:26:41.170Z,62.66
2018-09-27T06:27:41.326Z,62.94
2018-09-27T06:28:41.112Z,62.94
2018-09-27T06:29:41.085Z,63.65
2018-09-27T06:30:41.085Z,62.84
2018-09-27T06:31:41.090Z,63.35
2018-09-27T06:32:41.044Z,63.45
2018-09-27T06:33:41.295Z,63.45
2018-09-27T06:34:40.998Z,63.24
2018-09-27T06:35:41.030Z,63.24
2018-09-27T06:36:41.762Z,62.74
2018-09-27T06:37:41.026Z,62.74
2018-09-27T06:38:41.221Z,62.63
2018-09-27T06:39:40.998Z,62.54
2018-09-27T06:40:40.970Z,62.63
2018-09-27T06:41:40.931Z,62.33
2018-09-27T06:42:40.949Z,62.10
2018-09-27T06:43:40.959Z,61.72
2018-09-27T06:44:41.050Z,61.82
2018-09-27T06:45:40.980Z,62.20
2018-09-27T06:46:40.949Z,63.04
2018-09-27T06:47:40.937Z,61.61
2018-09-27T06:48:40.954Z,62.23
2018-09-27T06:49:40.891Z,61.61
2018-09-27T06:50:40.942Z,62.63
2018-09-27T06:51:40.868Z,61.31
2018-09-27T06:52:40.868Z,61.38
2018-09-27T06:53:41.716Z,61.49
2018-09-27T06:54:40.860Z,61.99
2018-09-27T06:55:41.135Z,60.98
2018-09-27T06:56:40.983Z,60.88
2018-09-27T06:57:40.798Z,61.38
2018-09-27T06:58:40.745Z,61.99
2018-09-27T06:59:40.788Z,60.88
2018-09-27T07:00:40.936Z,60.44
2018-09-27T07:01:40.761Z,60.64
2018-09-27T07:02:40.749Z,59.42
2018-09-27T07:03:40.690Z,59.93
2018-09-27T07:04:40.715Z,60.14
2018-09-27T07:05:40.779Z,60.44
2018-09-27T07:06:40.676Z,60.03
2018-09-27T07:07:40.630Z,60.64
2018-09-27T07:08:40.734Z,61.74
2018-09-27T07:09:40.727Z,60.95
2018-09-27T07:10:40.675Z,60.85
2018-09-27T07:11:40.660Z,60.64
2018-09-27T07:12:40.662Z,59.60
2018-09-27T07:13:40.662Z,59.60
2018-09-27T07:14:40.675Z,59.60
2018-09-27T07:15:40.696Z,59.60
2018-09-27T07:16:40.654Z,59.09
2018-09-27T07:17:40.612Z,59.50
2018-09-27T07:18:40.690Z,59.16
2018-09-27T07:19:40.540Z,59.19
2018-09-27T07:20:40.617Z,59.30
2018-09-27T07:21:40.523Z,58.69
2018-09-27T07:22:40.640Z,59.50
2018-09-27T07:23:40.521Z,59.60
2018-09-27T07:24:40.561Z,59.09
2018-09-27T07:25:40.582Z,58.89
2018-09-27T07:26:40.574Z,59.37
2018-09-27T07:27:40.633Z,58.86
2018-09-27T07:28:40.463Z,59.47
2018-09-27T07:29:40.466Z,60.08
2018-09-27T07:30:40.453Z,59.27
2018-09-27T07:31:40.427Z,59.06
2018-09-27T07:32:40.529Z,59.47
2018-09-27T07:33:40.538Z,59.27
2018-09-27T07:34:40.361Z,59.16
2018-09-27T07:35:40.402Z,59.77
2018-09-27T07:36:40.493Z,59.67
2018-09-27T07:37:40.379Z,59.47
2018-09-27T07:38:40.492Z,59.44
2018-09-27T07:39:40.415Z,59.03
2018-09-27T07:40:40.294Z,60.46
2018-09-27T07:41:41.224Z,59.64
2018-09-27T07:42:40.340Z,59.34
2018-09-27T07:43:40.301Z,58.94
2018-09-27T07:44:40.293Z,59.75
2018-09-27T07:45:40.476Z,60.25
2018-09-27T07:46:40.307Z,60.05
2018-09-27T07:47:41.265Z,59.54
2018-09-27T07:48:40.342Z,59.44
2018-09-27T07:49:40.272Z,59.41
2018-09-27T07:50:40.820Z,58.80
2018-09-27T07:51:40.217Z,59.62
2018-09-27T07:52:40.186Z,59.92
2018-09-27T07:53:40.225Z,59.89
2018-09-27T07:54:40.201Z,59.18
2018-09-27T07:55:40.236Z,58.91
2018-09-27T07:56:40.229Z,58.88
2018-09-27T07:57:40.171Z,58.78
2018-09-27T07:58:40.156Z,59.39
2018-09-27T07:59:40.107Z,58.98
2018-09-27T08:00:40.079Z,57.43
2018-09-27T08:01:40.237Z,59.16
2018-09-27T08:02:40.177Z,58.54
2018-09-27T08:03:40.133Z,58.24
2018-09-27T08:04:40.079Z,56.82
2018-09-27T08:05:40.024Z,57.12
2018-09-27T08:06:40.059Z,56.92
2018-09-27T08:07:40.129Z,57.23
2018-09-27T08:08:40.085Z,57.53
2018-09-27T08:09:40.052Z,55.10
2018-09-27T08:10:40.005Z,55.80
2018-09-27T08:11:40.090Z,57.12
2018-09-27T08:12:39.994Z,56.82
2018-09-27T08:13:40.077Z,55.78
2018-09-27T08:14:40.024Z,56.11
2018-09-27T08:15:39.988Z,56.01
2018-09-27T08:16:39.991Z,54.86
2018-09-27T08:17:39.926Z,55.78
2018-09-27T08:18:39.935Z,55.88
2018-09-27T08:19:39.902Z,55.78
2018-09-27T08:20:40.000Z,54.97
2018-09-27T08:21:39.885Z,55.27
2018-09-27T08:22:39.865Z,55.27
2018-09-27T08:23:40.012Z,54.77
2018-09-27T08:24:39.858Z,54.57
2018-09-27T08:25:39.868Z,54.97
2018-09-27T08:26:39.953Z,55.47
2018-09-27T08:27:39.830Z,53.65
2018-09-27T08:28:39.884Z,54.66
2018-09-27T08:29:39.809Z,55.17
2018-09-27T08:30:40.799Z,55.47
2018-09-27T08:31:39.802Z,54.66
2018-09-27T08:32:39.806Z,54.05
2018-09-27T08:33:39.853Z,54.86
2018-09-27T08:34:39.744Z,55.47
2018-09-27T08:35:39.729Z,54.86
2018-09-27T08:36:39.731Z,54.86
2018-09-27T08:37:39.715Z,54.66
2018-09-27T08:38:39.729Z,54.36
2018-09-27T08:39:39.868Z,55.58
2018-09-27T08:40:39.672Z,54.16
2018-09-27T08:41:39.661Z,54.16
2018-09-27T08:42:39.694Z,54.77
2018-09-27T08:43:39.633Z,55.10
2018-09-27T08:44:39.686Z,54.39
2018-09-27T08:45:40.872Z,55.50
2018-09-27T08:46:39.660Z,54.99
2018-09-27T08:47:39.580Z,54.79
2018-09-27T08:48:39.606Z,56.01
2018-09-27T08:49:39.601Z,56.82
2018-09-27T08:50:39.565Z,56.92
2018-09-27T08:51:39.644Z,56.79
2018-09-27T08:52:39.569Z,56.59
2018-09-27T08:53:39.555Z,55.80
2018-09-27T08:54:39.525Z,55.88
2018-09-27T08:55:39.642Z,55.78
2018-09-27T08:56:39.596Z,54.26
2018-09-27T08:57:39.582Z,55.37
2018-09-27T08:58:39.456Z,55.78
2018-09-27T08:59:39.503Z,54.97
2018-09-27T09:00:39.488Z,54.97
2018-09-27T09:01:39.568Z,57.07
2018-09-27T09:02:39.430Z,57.07
2018-09-27T09:03:39.726Z,57.17
2018-09-27T09:04:39.456Z,55.25
2018-09-27T09:05:39.439Z,56.23
2018-09-27T09:06:39.421Z,55.12
2018-09-27T09:07:39.557Z,54.71
2018-09-27T09:08:39.433Z,54.41
2018-09-27T09:09:39.445Z,53.70
2018-09-27T09:10:39.484Z,54.21
2018-09-27T09:11:39.375Z,54.41
2018-09-27T09:12:39.345Z,53.37
2018-09-27T09:13:39.393Z,53.47
2018-09-27T09:14:39.420Z,53.47
2018-09-27T09:15:39.309Z,54.59
2018-09-27T09:16:40.224Z,53.98
2018-09-27T09:17:39.276Z,54.08
2018-09-27T09:18:39.391Z,56.51
2018-09-27T09:19:39.339Z,53.98
2018-09-27T09:20:39.248Z,53.98
2018-09-27T09:21:39.322Z,53.47
2018-09-27T09:22:39.191Z,53.45
2018-09-27T09:23:39.288Z,52.94
2018-09-27T09:24:39.224Z,55.17
2018-09-27T09:25:39.245Z,54.97
2018-09-27T09:26:39.214Z,52.74
2018-09-27T09:27:39.196Z,53.63
2018-09-27T09:28:39.270Z,53.52
2018-09-27T09:29:39.408Z,52.41
2018-09-27T09:30:39.168Z,53.12
2018-09-27T09:31:39.156Z,54.44
2018-09-27T09:32:39.160Z,53.42
2018-09-27T09:33:39.224Z,54.13
2018-09-27T09:34:39.188Z,53.83
2018-09-27T09:35:39.208Z,53.50
2018-09-27T09:36:39.087Z,51.25
2018-09-27T09:37:39.077Z,51.96
2018-09-27T09:38:39.073Z,50.84
2018-09-27T09:39:39.078Z,50.74
2018-09-27T09:40:39.158Z,49.33
2018-09-27T09:41:39.034Z,49.71
2018-09-27T09:42:39.010Z,47.41
2018-09-27T09:43:39.036Z,49.02
2018-09-27T09:44:39.028Z,49.51
2018-09-27T09:45:39.003Z,49.53
2018-09-27T09:46:39.017Z,50.12
2018-09-27T09:47:38.992Z,50.01
2018-09-27T09:48:38.935Z,50.42
2018-09-27T09:49:39.045Z,50.72
2018-09-27T09:50:38.961Z,50.72
2018-09-27T09:51:39.059Z,50.59
2018-09-27T09:52:38.950Z,49.89
2018-09-27T09:53:39.004Z,48.58
2018-09-27T09:54:38.876Z,46.73
2018-09-27T09:55:38.915Z,46.33
2018-09-27T09:56:38.870Z,46.13
2018-09-27T09:57:38.996Z,45.83
2018-09-27T09:58:38.895Z,46.64
2018-09-27T09:59:38.868Z,44.21
2018-09-27T10:00:38.803Z,45.12
2018-09-27T10:01:38.813Z,43.69
2018-09-27T10:02:38.885Z,43.69
2018-09-27T10:03:38.933Z,43.89
2018-09-27T10:04:38.818Z,42.78
2018-09-27T10:05:38.827Z,42.78
2018-09-27T10:06:38.785Z,44.70
2018-09-27T10:07:38.753Z,44.29
2018-09-27T10:08:38.791Z,44.79
2018-09-27T10:09:38.733Z,43.69
2018-09-27T10:10:38.728Z,42.78
2018-09-27T10:11:38.706Z,40.03
2018-09-27T10:12:38.695Z,37.71
2018-09-27T10:13:38.689Z,39.23
2018-09-27T10:14:38.755Z,37.41
2018-09-27T10:15:38.696Z,38.12
2018-09-27T10:16:38.687Z,38.22
2018-09-27T10:17:38.662Z,37.31
2018-09-27T10:18:38.625Z,36.81
2018-09-27T10:19:38.676Z,34.27
2018-09-27T10:20:38.679Z,34.97
2018-09-27T10:21:38.638Z,34.97
2018-09-27T10:22:38.623Z,34.88
2018-09-27T10:23:38.564Z,34.47
2018-09-27T10:24:38.545Z,35.58
2018-09-27T10:25:38.561Z,34.77
2018-09-27T10:26:38.618Z,36.59
2018-09-27T10:27:38.615Z,35.68
2018-09-27T10:28:38.525Z,35.08
2018-09-27T10:29:38.541Z,37.09
2018-09-27T10:30:38.510Z,36.89
2018-09-27T10:31:38.567Z,35.97
2018-09-27T10:32:38.494Z,35.57
2018-09-27T10:33:38.474Z,32.95
2018-09-27T10:34:38.544Z,33.65
2018-09-27T10:35:38.438Z,31.33
2018-09-27T10:36:38.491Z,33.25
2018-09-27T10:37:38.448Z,35.06
2018-09-27T10:38:38.454Z,32.75
2018-09-27T10:39:38.373Z,33.65
2018-09-27T10:40:38.407Z,35.35
2018-09-27T10:41:38.485Z,35.05
2018-09-27T10:42:38.361Z,33.64
2018-09-27T10:43:38.392Z,31.62
2018-09-27T10:44:38.374Z,31.52
2018-09-27T10:45:38.383Z,32.83
2018-09-27T10:46:38.460Z,32.73
2018-09-27T10:47:38.351Z,32.83
2018-09-27T10:48:38.329Z,33.72
2018-09-27T10:49:38.343Z,30.30
2018-09-27T10:50:38.295Z,30.60
2018-09-27T10:51:38.297Z,31.20
2018-09-27T10:52:38.406Z,31.19
2018-09-27T10:53:38.260Z,32.29
2018-09-27T10:54:38.239Z,32.50
2018-09-27T10:55:38.227Z,32.20
2018-09-27T10:56:38.800Z,30.58
2018-09-27T10:57:38.177Z,29.47
2018-09-27T10:58:38.317Z,30.47
2018-09-27T10:59:38.227Z,30.36
2018-09-27T11:00:38.168Z,29.36
2018-09-27T11:01:38.216Z,29.78
2018-09-27T11:02:38.159Z,33.18
2018-09-27T11:03:38.151Z,30.47
2018-09-27T11:04:38.246Z,28.16
2018-09-27T11:05:38.270Z,28.34
2018-09-27T11:06:38.130Z,29.52
2018-09-27T11:07:38.129Z,29.88
2018-09-27T11:08:38.119Z,28.44
2018-09-27T11:09:38.093Z,27.48
2018-09-27T11:10:38.142Z,26.25
2018-09-27T11:11:38.113Z,24.74
2018-09-27T11:12:38.048Z,25.79
2018-09-27T11:13:38.052Z,25.67
2018-09-27T11:14:38.094Z,25.25
2018-09-27T11:15:38.018Z,25.24
2018-09-27T11:16:38.129Z,22.95
2018-09-27T11:17:38.008Z,23.46
2018-09-27T11:18:38.012Z,23.65
2018-09-27T11:19:37.976Z,23.14
2018-09-27T11:20:37.990Z,22.25
2018-09-27T11:21:38.001Z,22.03
2018-09-27T11:22:37.985Z,22.33
2018-09-27T11:23:37.891Z,20.64
2018-09-27T11:24:37.939Z,20.23
2018-09-27T11:25:37.949Z,20.73
2018-09-27T11:26:37.965Z,21.04
2018-09-27T11:27:37.952Z,20.95
2018-09-27T11:28:37.935Z,21.95
2018-09-27T11:29:37.885Z,21.75
2018-09-27T11:30:37.850Z,22.03
2018-09-27T11:31:37.842Z,20.53
2018-09-27T11:32:37.845Z,21.11
2018-09-27T11:33:37.849Z,20.13
2018-09-27T11:34:37.892Z,20.83
2018-09-27T11:35:37.796Z,20.43
2018-09-27T11:36:37.808Z,20.72
2018-09-27T11:37:37.772Z,19.93
2018-09-27T11:38:37.879Z,20.92
2018-09-27T11:39:37.810Z,20.43
2018-09-27T11:40:37.865Z,19.94
2018-09-27T11:41:37.787Z,20.64
2018-09-27T11:42:37.779Z,20.64
2018-09-27T11:43:37.724Z,20.24
2018-09-27T11:44:37.761Z,21.41
2018-09-27T11:45:37.680Z,20.51
2018-09-27T11:46:37.700Z,21.41
2018-09-27T11:47:37.755Z,21.00
2018-09-27T11:48:37.734Z,20.10
2018-09-27T11:49:37.660Z,20.30
2018-09-27T11:50:37.707Z,20.60
2018-09-27T11:51:37.596Z,20.70
2018-09-27T11:52:37.930Z,20.89
2018-09-27T11:53:37.654Z,18.80
2018-09-27T11:54:37.601Z,19.59
2018-09-27T11:55:37.597Z,19.68
2018-09-27T11:56:37.588Z,18.88
2018-09-27T11:57:37.575Z,18.80
2018-09-27T11:58:37.609Z,18.61
2018-09-27T11:59:37.529Z,20.40
2018-09-27T12:00:37.618Z,19.11
2018-09-27T12:01:37.607Z,20.61
2018-09-27T12:02:37.534Z,18.54
2018-09-27T12:03:37.584Z,18.54
2018-09-27T12:04:37.569Z,20.12
2018-09-27T12:05:37.489Z,20.52
2018-09-27T12:06:37.500Z,20.01
2018-09-27T12:07:37.551Z,20.30
2018-09-27T12:08:37.471Z,20.09
2018-09-27T12:09:37.469Z,20.57
2018-09-27T12:10:37.521Z,19.28
2018-09-27T12:11:37.397Z,19.27
2018-09-27T12:12:37.439Z,18.97
2018-09-27T12:13:37.468Z,17.78
2018-09-27T12:14:37.444Z,19.17
2018-09-27T12:15:37.387Z,19.74
2018-09-27T12:16:37.483Z,18.57
2018-09-27T12:17:37.442Z,19.95
2018-09-27T12:18:37.369Z,19.26
2018-09-27T12:19:37.384Z,18.97
2018-09-27T12:20:37.335Z,19.85
2018-09-27T12:21:37.357Z,18.96
2018-09-27T12:22:38.253Z,19.24
2018-09-27T12:23:37.300Z,15.01
2018-09-27T12:24:37.289Z,17.19
2018-09-27T12:25:37.349Z,15.83
2018-09-27T12:26:37.268Z,17.61
2018-09-27T12:27:37.269Z,17.00
2018-09-27T12:28:37.475Z,17.68
2018-09-27T12:29:37.246Z,18.97
2018-09-27T12:30:37.222Z,18.56
2018-09-27T12:31:37.298Z,17.18
2018-09-27T12:32:37.223Z,18.66
2018-09-27T12:33:37.212Z,17.87
2018-09-27T12:34:37.252Z,16.10
2018-09-27T12:35:37.188Z,16.49
2018-09-27T12:36:37.210Z,16.97
2018-09-27T12:37:37.174Z,17.25
2018-09-27T12:38:37.222Z,17.83
2018-09-27T12:39:37.189Z,17.93
2018-09-27T12:40:37.266Z,16.35
2018-09-27T12:41:37.145Z,16.55
2018-09-27T12:42:37.220Z,16.25
2018-09-27T12:43:37.072Z,16.16
2018-09-27T12:44:37.083Z,16.25
2018-09-27T12:45:37.123Z,16.74
2018-09-27T12:46:37.168Z,16.46
2018-09-27T12:47:37.052Z,15.38
2018-09-27T12:48:37.142Z,15.99
2018-09-27T12:49:37.028Z,17.18
2018-09-27T12:50:37.127Z,18.55
2018-09-27T12:51:37.118Z,15.78
2018-09-27T12:52:37.162Z,17.94